Ely, MN

10:44 AM CDT on April 21, 2018 (GMT -0500)
Ely Municipal

Weather History for KELO - June, 2012

Change the Weather History Date:

Thursday, June 21, 2012

  Actual Average Record
Temperature  
Mean Temperature 61 °F -  
Max Temperature 69 °F 70 °F 82 °F (2003)
Min Temperature 53 °F 50 °F 41 °F (2007)
Degree Days  
Heating Degree Days 4    
Growing Degree Days 11 (Base 50)    
Moisture  
Dew Point 49 °F    
Average Humidity 71    
Maximum Humidity 100    
Minimum Humidity 35    
Precipitation  
Precipitation 0.09 in - - ()
Sea Level Pressure  
Sea Level Pressure 29.84 in    
Wind  
Wind Speed 7 mph (West)    
Max Wind Speed 20 mph    
Max Gust Speed 30 mph    
Visibility 10 miles    
Events Rain    
Averages and records for this station are not official NWS values.
T = Trace of Precipitation, MM = Missing Value Source: NWS Daily Summary

Daily Weather History Graph

Daily Weather History Graph

Search for Another Location

Airport or City:

Astronomy

Jun. 21, 2012 Rise Set
Actual Time 5:08 AM CDT 9:09 PM CDT
Civil Twilight 4:27 AM CDT 9:50 PM CDT
Nautical Twilight 3:30 AM CDT 10:47 PM CDT
Astronomical Twilight 1:55 AM CDT 12:23 AM CDT
Moon 7:16 AM CDT 10:21 PM CDT
Length of Visible Light 17h 23m
Length of Day
16h 01m
Waxing Crescent, 4% of the Moon is Illuminated
Jun 21
Waxing Crescent
Jun 26
First Quarter
Jul 3
Full
Jul 10
Last Quarter
Jul 18
New

Hourly Weather History & Observations

Time (CDT) Temp. Dew Point Humidity Pressure Visibility Wind Dir Wind Speed Gust Speed Precip Events Conditions
12:13 AM 57.2 °F 55.4 °F 94% 29.77 in 10.0 mi West 6.9 mph - N/A   Clear
12:33 AM 57.2 °F 55.4 °F 94% 29.77 in 10.0 mi West 5.8 mph - N/A   Clear
12:52 AM 57.2 °F 55.4 °F 94% 29.77 in 10.0 mi West 3.5 mph - N/A   Scattered Clouds
1:12 AM 57.2 °F 55.4 °F 94% 29.77 in 10.0 mi West 4.6 mph - N/A   Mostly Cloudy
1:32 AM 55.4 °F 53.6 °F 94% 29.77 in 10.0 mi West 5.8 mph - N/A   Scattered Clouds
1:53 AM 55.4 °F 53.6 °F 94% 29.76 in 10.0 mi WSW 4.6 mph - N/A   Clear
2:12 AM 55.4 °F 53.6 °F 94% 29.76 in 10.0 mi WSW 4.6 mph - N/A   Clear
2:32 AM 55.4 °F 53.6 °F 94% 29.77 in 10.0 mi West 4.6 mph - N/A   Clear
2:53 AM 55.4 °F 53.6 °F 94% 29.77 in 10.0 mi West 3.5 mph - N/A   Clear
3:13 AM 55.4 °F 53.6 °F 94% 29.76 in 10.0 mi SW 3.5 mph - N/A   Clear
3:32 AM 53.6 °F 53.6 °F 100% 29.76 in 10.0 mi Calm Calm - N/A   Scattered Clouds
3:53 AM 55.4 °F 53.6 °F 94% 29.77 in 10.0 mi Calm Calm - N/A   Scattered Clouds
4:12 AM 55.4 °F 53.6 °F 94% 29.77 in 10.0 mi Calm Calm - N/A   Mostly Cloudy
4:32 AM 53.6 °F 53.6 °F 100% 29.76 in 10.0 mi Calm Calm - N/A   Mostly Cloudy
4:53 AM 53.6 °F 53.6 °F 100% 29.77 in 10.0 mi SW 3.5 mph - N/A   Mostly Cloudy
5:12 AM 53.6 °F 53.6 °F 100% 29.78 in 7.0 mi SW 3.5 mph - 0.04 in Rain Light Rain
5:33 AM 55.4 °F 53.6 °F 94% 29.77 in 10.0 mi SW 4.6 mph - 0.09 in Rain Rain
5:52 AM 55.4 °F 53.6 °F 94% 29.77 in 10.0 mi WSW 3.5 mph - 0.09 in   Scattered Clouds
6:13 AM 55.4 °F 53.6 °F 94% 29.78 in 10.0 mi WSW 5.8 mph - N/A   Clear
6:32 AM 55.4 °F 53.6 °F 94% 29.79 in 10.0 mi West 9.2 mph - N/A   Scattered Clouds
6:53 AM 55.4 °F 53.6 °F 94% 29.79 in 10.0 mi West 8.1 mph - N/A   Overcast
7:12 AM 55.4 °F 53.6 °F 94% 29.80 in 10.0 mi West 6.9 mph - N/A   Overcast
7:32 AM 55.4 °F 53.6 °F 94% 29.81 in 10.0 mi NW 9.2 mph - N/A   Overcast
7:53 AM 55.4 °F 53.6 °F 94% 29.81 in 10.0 mi WNW 5.8 mph - N/A   Overcast
8:12 AM 55.4 °F 51.8 °F 88% 29.82 in 10.0 mi West 8.1 mph - N/A   Overcast
8:33 AM 57.2 °F 53.6 °F 88% 29.83 in 10.0 mi WNW 10.4 mph - N/A   Overcast
8:53 AM 57.2 °F 51.8 °F 82% 29.84 in 10.0 mi WNW 10.4 mph - N/A   Mostly Cloudy
9:12 AM 57.2 °F 51.8 °F 82% 29.84 in 10.0 mi WNW 8.1 mph 17.3 mph N/A   Mostly Cloudy
9:33 AM 59.0 °F 53.6 °F 82% 29.84 in 10.0 mi WNW 5.8 mph - N/A   Mostly Cloudy
9:52 AM 60.8 °F 51.8 °F 72% 29.84 in 10.0 mi WNW 9.2 mph 16.1 mph N/A   Scattered Clouds
10:13 AM 60.8 °F 51.8 °F 72% 29.85 in 10.0 mi West 9.2 mph 17.3 mph N/A   Scattered Clouds
10:32 AM 62.6 °F 51.8 °F 68% 29.85 in 10.0 mi WNW 12.7 mph 21.9 mph N/A   Scattered Clouds
10:52 AM 62.6 °F 51.8 °F 68% 29.85 in 10.0 mi WNW 8.1 mph 20.7 mph N/A   Mostly Cloudy
11:13 AM 62.6 °F 51.8 °F 68% 29.85 in 10.0 mi West 13.8 mph 24.2 mph N/A   Mostly Cloudy
11:32 AM 64.4 °F 51.8 °F 64% 29.86 in 10.0 mi West 15.0 mph 19.6 mph N/A   Scattered Clouds
11:52 AM 64.4 °F 51.8 °F 64% 29.85 in 10.0 mi West 11.5 mph 21.9 mph N/A   Scattered Clouds
12:13 PM 62.6 °F 48.2 °F 59% 29.86 in 10.0 mi WNW 18.4 mph 25.3 mph N/A   Scattered Clouds
12:32 PM 64.4 °F 48.2 °F 56% 29.85 in 10.0 mi WNW 13.8 mph 23.0 mph N/A   Scattered Clouds
12:52 PM 66.2 °F 42.8 °F 43% 29.86 in 10.0 mi NW 18.4 mph 28.8 mph N/A   Scattered Clouds
1:13 PM 66.2 °F 44.6 °F 46% 29.86 in 10.0 mi WNW 15.0 mph 26.5 mph N/A   Scattered Clouds
1:33 PM 66.2 °F 46.4 °F 49% 29.86 in 10.0 mi WNW 15.0 mph 29.9 mph N/A   Scattered Clouds
1:52 PM 68.0 °F 44.6 °F 43% 29.86 in 10.0 mi West 18.4 mph 26.5 mph N/A   Scattered Clouds
2:12 PM 68.0 °F 46.4 °F 46% 29.86 in 10.0 mi West 17.3 mph 21.9 mph N/A   Mostly Cloudy
2:33 PM 66.2 °F 46.4 °F 49% 29.86 in 10.0 mi WNW 11.5 mph 25.3 mph N/A   Scattered Clouds
2:53 PM 69.8 °F 44.6 °F 40% 29.86 in 10.0 mi WNW 18.4 mph 28.8 mph N/A   Scattered Clouds
3:08 PM 68.0 °F 44.6 °F 43% 29.87 in 10.0 mi WNW 15.0 mph 25.3 mph N/A   Scattered Clouds
3:12 PM 68.0 °F 44.6 °F 43% 29.86 in 10.0 mi West 18.4 mph 26.5 mph N/A   Scattered Clouds
3:33 PM 66.2 °F 42.8 °F 43% 29.87 in 10.0 mi West 16.1 mph 25.3 mph N/A   Scattered Clouds
4:12 PM 69.8 °F 44.6 °F 40% 29.87 in 10.0 mi WNW 19.6 mph 26.5 mph N/A   Scattered Clouds
4:33 PM 69.8 °F 42.8 °F 38% 29.87 in 10.0 mi WNW 11.5 mph 24.2 mph N/A   Scattered Clouds
4:53 PM 68.0 °F 42.8 °F 40% 29.87 in 10.0 mi WNW 13.8 mph 24.2 mph N/A   Scattered Clouds
5:12 PM 68.0 °F 42.8 °F 40% 29.87 in 10.0 mi NW 16.1 mph 24.2 mph N/A   Scattered Clouds
5:33 PM 68.0 °F 39.2 °F 35% 29.87 in 10.0 mi WNW 15.0 mph 27.6 mph N/A   Scattered Clouds
5:52 PM 68.0 °F 42.8 °F 40% 29.87 in 10.0 mi WNW 17.3 mph 25.3 mph N/A   Scattered Clouds
6:12 PM 66.2 °F 42.8 °F 43% 29.87 in 10.0 mi WNW 13.8 mph 19.6 mph N/A   Scattered Clouds
6:33 PM 68.0 °F 42.8 °F 40% 29.88 in 10.0 mi WNW 12.7 mph 19.6 mph N/A   Scattered Clouds
6:52 PM 68.0 °F 42.8 °F 40% 29.89 in 10.0 mi NW 10.4 mph 20.7 mph N/A   Scattered Clouds
7:12 PM 66.2 °F 42.8 °F 43% 29.89 in 10.0 mi WNW 9.2 mph 19.6 mph N/A   Scattered Clouds
7:33 PM 66.2 °F 42.8 °F 43% 29.89 in 10.0 mi NW 8.1 mph - N/A   Scattered Clouds
7:53 PM 66.2 °F 42.8 °F 43% 29.89 in 10.0 mi NW 4.6 mph - N/A   Scattered Clouds
8:12 PM 64.4 °F 44.6 °F 49% 29.89 in 10.0 mi NW 6.9 mph - N/A   Clear
8:33 PM 62.6 °F 44.6 °F 52% 29.90 in 10.0 mi WNW 4.6 mph - N/A   Clear
8:52 PM 62.6 °F 44.6 °F 52% 29.90 in 10.0 mi West 3.5 mph - N/A   Clear
9:13 PM 60.8 °F 46.4 °F 59% 29.91 in 10.0 mi WSW 3.5 mph - N/A   Clear
9:33 PM 57.2 °F 46.4 °F 67% 29.92 in 10.0 mi SW 3.5 mph - N/A   Clear
9:52 PM 57.2 °F 46.4 °F 67% 29.92 in 10.0 mi Calm Calm - N/A   Clear
10:13 PM 55.4 °F 48.2 °F 77% 29.92 in 10.0 mi WSW 3.5 mph - N/A   Clear
10:33 PM 53.6 °F 50.0 °F 88% 29.92 in 10.0 mi SW 3.5 mph - N/A   Clear
10:52 PM 57.2 °F 51.8 °F 82% 29.92 in 10.0 mi SW 3.5 mph - N/A   Clear
11:13 PM 55.4 °F 51.8 °F 88% 29.92 in 10.0 mi SW 3.5 mph - N/A   Clear
11:33 PM 55.4 °F 51.8 °F 88% 29.92 in 10.0 mi SW 3.5 mph - N/A   Clear
11:52 PM 55.4 °F 51.8 °F 88% 29.93 in 10.0 mi SW 4.6 mph - N/A   Clear